SAS7711 LGSK-ESGG
Flight info
| Callsign | SAS7711 |
|---|---|
| Flight time | 3h 11m |
| Altitude | 36000 |
| Route | IBIDI UL617 MAKED RAXAD OSVIX PARAK PATAK BILNA SOPAV REGLI L617 KOLOB NEXIL NILEN ARQUS |
| Aircraft | A320/M-SDE3FGHIJ1RWXYZ/ALB1 |
Departure
| Time | 2026-04-14 12:44 |
|---|---|
| Airport | Skiathos Island National Airport (LGSK) |
Arrival
| Time | 2026-04-14 15:55 |
|---|---|
| Airport | Göteborg Landvetter Airport (ESGG) |
| Time | Latitude | Longitude | Altitude | Speed | Heading |
|---|---|---|---|---|---|
| 2026-04-14 12:15 | 39.17916 | 23.50225 | 54 ft | 0 kts | 284° |
| 2026-04-14 12:29 | 39.17913 | 23.50239 | 51 ft | 4 kts | 283° |
| 2026-04-14 12:30 | 39.17908 | 23.50273 | 47 ft | 4 kts | 276° |
| 2026-04-14 12:30 | 39.17908 | 23.50307 | 45 ft | 4 kts | 252° |
| 2026-04-14 12:30 | 39.17919 | 23.50329 | 44 ft | 2 kts | 199° |
| 2026-04-14 12:30 | 39.17924 | 23.50331 | 39 ft | 1 kts | 199° |
| 2026-04-14 12:32 | 39.17913 | 23.50326 | 43 ft | 7 kts | 199° |
| 2026-04-14 12:32 | 39.17846 | 23.50297 | 42 ft | 12 kts | 198° |
| 2026-04-14 12:33 | 39.17764 | 23.50261 | 40 ft | 8 kts | 198° |
| 2026-04-14 12:33 | 39.17729 | 23.50259 | 39 ft | 0 kts | 166° |
| 2026-04-14 12:33 | 39.17727 | 23.50260 | 39 ft | 2 kts | 164° |
| 2026-04-14 12:34 | 39.17708 | 23.50289 | 40 ft | 6 kts | 116° |
| 2026-04-14 12:34 | 39.17669 | 23.50334 | 40 ft | 11 kts | 174° |
| 2026-04-14 12:34 | 39.17578 | 23.50298 | 37 ft | 17 kts | 199° |
| 2026-04-14 12:34 | 39.17453 | 23.50242 | 33 ft | 21 kts | 199° |
| 2026-04-14 12:35 | 39.17300 | 23.50175 | 27 ft | 26 kts | 199° |
| 2026-04-14 12:35 | 39.17176 | 23.50119 | 21 ft | 14 kts | 198° |
| 2026-04-14 12:35 | 39.17080 | 23.50092 | 19 ft | 12 kts | 192° |
| 2026-04-14 12:35 | 39.17033 | 23.50054 | 16 ft | 8 kts | 286° |
| 2026-04-14 12:36 | 39.17061 | 23.50054 | 18 ft | 5 kts | 38° |
| 2026-04-14 12:36 | 39.17087 | 23.50080 | 19 ft | 5 kts | 26° |
| 2026-04-14 12:36 | 39.17092 | 23.50082 | 19 ft | 0 kts | 21° |
| 2026-04-14 12:43 | 39.17180 | 23.50123 | 22 ft | 48 kts | 19° |
| 2026-04-14 12:43 | 39.17745 | 23.50372 | 41 ft | 120 kts | 19° |
| 2026-04-14 12:44 | 39.18705 | 23.50803 | 210 ft | 159 kts | 19° |
| 2026-04-14 12:44 | 39.19728 | 23.51243 | 944 ft | 157 kts | 19° |
| 2026-04-14 12:44 | 39.20431 | 23.51543 | 1325 ft | 162 kts | 21° |
| 2026-04-14 12:45 | 39.22664 | 23.52533 | 1886 ft | 188 kts | 21° |
| 2026-04-14 12:45 | 39.23963 | 23.53119 | 2159 ft | 204 kts | 21° |
| 2026-04-14 12:45 | 39.25316 | 23.53725 | 2674 ft | 208 kts | 21° |
| 2026-04-14 12:45 | 39.26679 | 23.54380 | 3202 ft | 210 kts | 30° |
| 2026-04-14 12:46 | 39.27706 | 23.55686 | 3656 ft | 211 kts | 66° |
| 2026-04-14 12:46 | 39.27958 | 23.57514 | 4136 ft | 210 kts | 102° |
| 2026-04-14 12:46 | 39.27533 | 23.59312 | 4645 ft | 211 kts | 113° |
| 2026-04-14 12:46 | 39.27040 | 23.61113 | 5160 ft | 214 kts | 113° |
| 2026-04-14 12:47 | 39.26473 | 23.62900 | 5642 ft | 215 kts | 128° |
| 2026-04-14 12:47 | 39.25464 | 23.64373 | 5948 ft | 228 kts | 133° |
| 2026-04-14 12:47 | 39.24791 | 23.66313 | 6156 ft | 255 kts | 96° |
| 2026-04-14 12:47 | 39.25173 | 23.68633 | 6411 ft | 281 kts | 59° |
| 2026-04-14 12:48 | 39.26593 | 23.70388 | 6897 ft | 290 kts | 24° |
| 2026-04-14 12:48 | 39.28546 | 23.70885 | 7507 ft | 289 kts | 350° |
| 2026-04-14 12:48 | 39.30376 | 23.69972 | 8145 ft | 283 kts | 316° |
| 2026-04-14 12:48 | 39.31664 | 23.68088 | 8848 ft | 280 kts | 301° |
| 2026-04-14 12:49 | 39.32738 | 23.65992 | 9606 ft | 280 kts | 298° |
| 2026-04-14 12:49 | 39.33783 | 23.63865 | 10336 ft | 281 kts | 298° |
| 2026-04-14 12:49 | 39.34867 | 23.61754 | 11008 ft | 283 kts | 300° |
| 2026-04-14 12:49 | 39.36007 | 23.59668 | 11664 ft | 285 kts | 302° |
| 2026-04-14 12:50 | 39.37196 | 23.57603 | 12308 ft | 288 kts | 303° |
| 2026-04-14 12:50 | 39.39666 | 23.53490 | 13586 ft | 292 kts | 304° |
| 2026-04-14 12:50 | 39.40995 | 23.51484 | 14180 ft | 297 kts | 312° |
| 2026-04-14 12:51 | 39.42663 | 23.49849 | 14651 ft | 309 kts | 325° |
| 2026-04-14 12:51 | 39.44675 | 23.48693 | 14764 ft | 332 kts | 335° |
| 2026-04-14 12:51 | 39.46899 | 23.47635 | 14888 ft | 349 kts | 335° |
| 2026-04-14 12:51 | 39.49249 | 23.46511 | 15173 ft | 360 kts | 335° |
| 2026-04-14 12:52 | 39.51611 | 23.45377 | 15640 ft | 364 kts | 335° |
| 2026-04-14 12:52 | 39.53965 | 23.44242 | 16127 ft | 367 kts | 335° |
| 2026-04-14 12:52 | 39.56371 | 23.43079 | 16645 ft | 370 kts | 335° |
| 2026-04-14 12:52 | 39.58792 | 23.41906 | 17185 ft | 373 kts | 335° |
| 2026-04-14 12:53 | 39.61226 | 23.40721 | 17703 ft | 375 kts | 335° |
| 2026-04-14 12:53 | 39.63678 | 23.39525 | 18241 ft | 378 kts | 335° |
| 2026-04-14 12:53 | 39.66147 | 23.38321 | 18729 ft | 381 kts | 335° |
| 2026-04-14 12:53 | 39.68634 | 23.37112 | 19213 ft | 383 kts | 334° |
| 2026-04-14 12:54 | 39.71132 | 23.35894 | 19722 ft | 384 kts | 334° |
| 2026-04-14 12:54 | 39.73642 | 23.34669 | 20243 ft | 386 kts | 334° |
| 2026-04-14 12:54 | 39.76163 | 23.33438 | 20757 ft | 388 kts | 334° |
| 2026-04-14 12:54 | 39.78693 | 23.32199 | 21268 ft | 389 kts | 333° |
| 2026-04-14 12:55 | 39.81236 | 23.30954 | 21721 ft | 392 kts | 333° |
| 2026-04-14 12:55 | 39.83794 | 23.29701 | 22185 ft | 394 kts | 333° |
| 2026-04-14 12:55 | 39.86371 | 23.28436 | 22636 ft | 396 kts | 333° |
| 2026-04-14 12:55 | 39.88960 | 23.27165 | 23090 ft | 398 kts | 333° |
| 2026-04-14 12:56 | 39.91559 | 23.25890 | 23539 ft | 400 kts | 333° |
| 2026-04-14 12:56 | 39.94173 | 23.24611 | 23930 ft | 402 kts | 332° |
| 2026-04-14 12:56 | 39.96799 | 23.23325 | 24281 ft | 404 kts | 332° |
| 2026-04-14 12:56 | 39.99439 | 23.22028 | 24611 ft | 407 kts | 332° |
| 2026-04-14 12:57 | 40.02098 | 23.20718 | 24944 ft | 409 kts | 332° |
| 2026-04-14 12:57 | 40.04773 | 23.19396 | 25233 ft | 413 kts | 332° |
| 2026-04-14 12:57 | 40.07465 | 23.18064 | 25547 ft | 415 kts | 331° |
| 2026-04-14 12:57 | 40.10175 | 23.16725 | 25860 ft | 417 kts | 331° |
| 2026-04-14 12:58 | 40.12898 | 23.15379 | 26164 ft | 420 kts | 331° |
| 2026-04-14 12:58 | 40.15638 | 23.14024 | 26460 ft | 422 kts | 331° |
| 2026-04-14 12:58 | 40.18391 | 23.12662 | 26763 ft | 424 kts | 330° |
| 2026-04-14 12:58 | 40.21156 | 23.11294 | 27065 ft | 426 kts | 330° |
| 2026-04-14 12:59 | 40.23939 | 23.09919 | 27392 ft | 428 kts | 330° |
| 2026-04-14 12:59 | 40.26731 | 23.08536 | 27715 ft | 430 kts | 330° |
| 2026-04-14 12:59 | 40.29532 | 23.07141 | 28049 ft | 431 kts | 330° |
| 2026-04-14 12:59 | 40.32342 | 23.05740 | 28357 ft | 433 kts | 330° |
| 2026-04-14 13:00 | 40.35160 | 23.04337 | 28662 ft | 435 kts | 330° |
| 2026-04-14 13:00 | 40.37992 | 23.02928 | 29021 ft | 435 kts | 329° |
| 2026-04-14 13:00 | 40.40817 | 23.01525 | 29475 ft | 433 kts | 329° |
| 2026-04-14 13:00 | 40.43634 | 23.00126 | 29941 ft | 432 kts | 329° |
| 2026-04-14 13:01 | 40.46380 | 22.98621 | 30385 ft | 422 kts | 322° |
| 2026-04-14 13:01 | 40.48961 | 22.96833 | 30750 ft | 419 kts | 321° |
| 2026-04-14 13:01 | 40.51536 | 22.95031 | 31085 ft | 419 kts | 321° |
| 2026-04-14 13:01 | 40.54104 | 22.93233 | 31404 ft | 419 kts | 321° |
| 2026-04-14 13:02 | 40.56679 | 22.91430 | 31717 ft | 419 kts | 321° |
| 2026-04-14 13:02 | 40.59252 | 22.89625 | 32030 ft | 419 kts | 320° |
| 2026-04-14 13:02 | 40.61825 | 22.87818 | 32344 ft | 419 kts | 320° |
| 2026-04-14 13:02 | 40.64396 | 22.86009 | 32657 ft | 419 kts | 320° |
| 2026-04-14 13:03 | 40.66972 | 22.84197 | 32977 ft | 420 kts | 320° |
| 2026-04-14 13:03 | 40.69550 | 22.82384 | 33294 ft | 420 kts | 320° |
| 2026-04-14 13:03 | 40.72122 | 22.80576 | 33670 ft | 419 kts | 320° |
| 2026-04-14 13:03 | 40.74688 | 22.78774 | 34058 ft | 417 kts | 320° |
| 2026-04-14 13:04 | 40.77245 | 22.76978 | 34367 ft | 416 kts | 320° |
| 2026-04-14 13:04 | 40.79800 | 22.75176 | 34607 ft | 416 kts | 320° |
| 2026-04-14 13:04 | 40.82351 | 22.73372 | 34851 ft | 416 kts | 320° |
| 2026-04-14 13:04 | 40.84900 | 22.71566 | 35099 ft | 416 kts | 320° |
| 2026-04-14 13:05 | 40.87448 | 22.69766 | 35332 ft | 415 kts | 321° |
| 2026-04-14 13:05 | 40.89996 | 22.67966 | 35561 ft | 415 kts | 321° |
| 2026-04-14 13:05 | 40.92540 | 22.66164 | 35791 ft | 414 kts | 321° |
| 2026-04-14 13:05 | 40.95077 | 22.64363 | 36039 ft | 414 kts | 321° |
| 2026-04-14 13:06 | 40.97615 | 22.62558 | 36166 ft | 415 kts | 322° |
| 2026-04-14 13:06 | 41.02755 | 22.58894 | 36196 ft | 424 kts | 322° |
| 2026-04-14 13:07 | 41.07981 | 22.55171 | 36189 ft | 428 kts | 322° |
| 2026-04-14 13:07 | 41.13366 | 22.51794 | 36187 ft | 441 kts | 333° |
| 2026-04-14 13:07 | 41.16390 | 22.50847 | 36190 ft | 452 kts | 341° |
| 2026-04-14 13:08 | 41.19491 | 22.50159 | 36186 ft | 453 kts | 341° |
| 2026-04-14 13:08 | 41.25703 | 22.48755 | 36178 ft | 453 kts | 341° |
| 2026-04-14 13:09 | 41.31914 | 22.47323 | 36180 ft | 453 kts | 341° |
| 2026-04-14 13:09 | 41.38132 | 22.45884 | 36193 ft | 454 kts | 341° |
| 2026-04-14 13:10 | 41.44353 | 22.44446 | 36187 ft | 453 kts | 342° |
| 2026-04-14 13:10 | 41.50567 | 22.43020 | 36184 ft | 453 kts | 342° |
| 2026-04-14 13:11 | 41.56778 | 22.41591 | 36178 ft | 453 kts | 342° |
| 2026-04-14 13:11 | 41.63019 | 22.40147 | 36192 ft | 452 kts | 342° |
| 2026-04-14 13:12 | 41.69171 | 22.38716 | 36187 ft | 451 kts | 343° |
| 2026-04-14 13:12 | 41.75355 | 22.37280 | 36180 ft | 451 kts | 343° |
| 2026-04-14 13:13 | 41.81570 | 22.35843 | 36193 ft | 450 kts | 343° |
| 2026-04-14 13:13 | 41.87693 | 22.34417 | 36176 ft | 449 kts | 343° |
| 2026-04-14 13:14 | 41.93842 | 22.32972 | 36170 ft | 448 kts | 343° |
| 2026-04-14 13:14 | 41.99987 | 22.31533 | 36161 ft | 448 kts | 343° |
| 2026-04-14 13:15 | 42.06126 | 22.30094 | 36166 ft | 447 kts | 344° |
| 2026-04-14 13:15 | 42.12258 | 22.28656 | 36155 ft | 447 kts | 344° |
| 2026-04-14 13:16 | 42.18382 | 22.27214 | 36148 ft | 447 kts | 344° |
| 2026-04-14 13:16 | 42.24506 | 22.25767 | 36160 ft | 447 kts | 344° |
| 2026-04-14 13:17 | 42.30612 | 22.24257 | 36149 ft | 443 kts | 339° |
| 2026-04-14 13:17 | 42.36399 | 22.21624 | 36140 ft | 438 kts | 334° |
| 2026-04-14 13:18 | 42.42142 | 22.18862 | 36141 ft | 438 kts | 334° |
| 2026-04-14 13:18 | 42.47890 | 22.16101 | 36131 ft | 438 kts | 335° |
| 2026-04-14 13:19 | 42.53639 | 22.13337 | 36121 ft | 438 kts | 334° |
| 2026-04-14 13:19 | 42.59341 | 22.10418 | 36117 ft | 438 kts | 333° |
| 2026-04-14 13:20 | 42.65004 | 22.07373 | 36110 ft | 438 kts | 333° |
| 2026-04-14 13:20 | 42.70671 | 22.04329 | 36100 ft | 438 kts | 333° |
| 2026-04-14 13:21 | 42.76354 | 22.01317 | 36098 ft | 438 kts | 333° |
| 2026-04-14 13:21 | 42.82036 | 21.98311 | 36099 ft | 438 kts | 333° |
| 2026-04-14 13:22 | 42.87722 | 21.95286 | 36102 ft | 439 kts | 333° |
| 2026-04-14 13:22 | 42.93409 | 21.92251 | 36100 ft | 439 kts | 334° |
| 2026-04-14 13:23 | 42.99100 | 21.89215 | 36107 ft | 439 kts | 333° |
| 2026-04-14 13:23 | 43.04786 | 21.86171 | 36113 ft | 439 kts | 334° |
| 2026-04-14 13:24 | 43.10476 | 21.83114 | 36116 ft | 439 kts | 334° |
| 2026-04-14 13:24 | 43.19013 | 21.78536 | 36117 ft | 439 kts | 334° |
| 2026-04-14 13:25 | 43.24699 | 21.75469 | 36121 ft | 439 kts | 334° |
| 2026-04-14 13:26 | 43.36068 | 21.69326 | 36122 ft | 439 kts | 334° |
| 2026-04-14 13:26 | 43.41751 | 21.66247 | 36118 ft | 439 kts | 334° |
| 2026-04-14 13:27 | 43.47427 | 21.63161 | 36118 ft | 438 kts | 334° |
| 2026-04-14 13:27 | 43.53098 | 21.60073 | 36117 ft | 438 kts | 334° |
| 2026-04-14 13:28 | 43.57815 | 21.57504 | 36125 ft | 438 kts | 334° |
| 2026-04-14 13:28 | 43.63479 | 21.54406 | 36126 ft | 438 kts | 334° |
| 2026-04-14 13:29 | 43.70056 | 21.50805 | 36116 ft | 437 kts | 334° |
| 2026-04-14 13:29 | 43.74796 | 21.48211 | 36121 ft | 437 kts | 334° |
| 2026-04-14 13:30 | 43.80451 | 21.45099 | 36119 ft | 437 kts | 334° |
| 2026-04-14 13:30 | 43.86101 | 21.41987 | 36118 ft | 437 kts | 334° |
| 2026-04-14 13:31 | 43.91757 | 21.38871 | 36125 ft | 437 kts | 335° |
| 2026-04-14 13:31 | 43.97399 | 21.35744 | 36119 ft | 437 kts | 335° |
| 2026-04-14 13:32 | 44.03045 | 21.32609 | 36120 ft | 437 kts | 335° |
| 2026-04-14 13:32 | 44.08694 | 21.29472 | 36109 ft | 437 kts | 335° |
| 2026-04-14 13:33 | 44.14336 | 21.26340 | 36109 ft | 437 kts | 335° |
| 2026-04-14 13:33 | 44.19984 | 21.23194 | 36111 ft | 437 kts | 335° |
| 2026-04-14 13:34 | 44.28447 | 21.18460 | 36109 ft | 437 kts | 335° |
| 2026-04-14 13:35 | 44.34087 | 21.15291 | 36108 ft | 437 kts | 335° |
| 2026-04-14 13:35 | 44.39727 | 21.12123 | 36114 ft | 437 kts | 335° |
| 2026-04-14 13:36 | 44.45368 | 21.08955 | 36111 ft | 437 kts | 334° |
| 2026-04-14 13:36 | 44.51002 | 21.05779 | 36121 ft | 436 kts | 335° |
| 2026-04-14 13:37 | 44.56590 | 21.02617 | 36114 ft | 436 kts | 335° |
| 2026-04-14 13:37 | 44.62212 | 20.99432 | 36123 ft | 436 kts | 334° |
| 2026-04-14 13:38 | 44.67829 | 20.96243 | 36117 ft | 435 kts | 335° |
| 2026-04-14 13:38 | 44.73450 | 20.93052 | 36112 ft | 436 kts | 335° |
| 2026-04-14 13:39 | 44.79064 | 20.89854 | 36111 ft | 435 kts | 335° |
| 2026-04-14 13:39 | 44.84676 | 20.86653 | 36110 ft | 435 kts | 335° |
| 2026-04-14 13:40 | 44.90278 | 20.83440 | 36113 ft | 435 kts | 335° |
| 2026-04-14 13:40 | 44.95876 | 20.80220 | 36113 ft | 434 kts | 335° |
| 2026-04-14 13:41 | 45.01478 | 20.77009 | 36114 ft | 434 kts | 335° |
| 2026-04-14 13:41 | 45.07073 | 20.73797 | 36120 ft | 434 kts | 335° |
| 2026-04-14 13:42 | 45.12664 | 20.70565 | 36115 ft | 435 kts | 335° |
| 2026-04-14 13:42 | 45.18271 | 20.67322 | 36114 ft | 435 kts | 335° |
| 2026-04-14 13:43 | 45.23877 | 20.64067 | 36112 ft | 435 kts | 335° |
| 2026-04-14 13:43 | 45.29478 | 20.60800 | 36121 ft | 435 kts | 335° |
| 2026-04-14 13:44 | 45.35085 | 20.57534 | 36115 ft | 436 kts | 335° |
| 2026-04-14 13:44 | 45.40663 | 20.54290 | 36121 ft | 436 kts | 335° |
| 2026-04-14 13:45 | 45.46313 | 20.50992 | 36119 ft | 436 kts | 335° |
| 2026-04-14 13:45 | 45.51926 | 20.47703 | 36121 ft | 436 kts | 335° |
| 2026-04-14 13:46 | 45.57542 | 20.44412 | 36121 ft | 436 kts | 335° |
| 2026-04-14 13:46 | 45.63159 | 20.41110 | 36120 ft | 437 kts | 335° |
| 2026-04-14 13:47 | 45.68732 | 20.37807 | 36123 ft | 437 kts | 335° |
| 2026-04-14 13:47 | 45.74354 | 20.34485 | 36125 ft | 437 kts | 335° |
| 2026-04-14 13:48 | 45.79970 | 20.31161 | 36127 ft | 437 kts | 335° |
| 2026-04-14 13:48 | 45.85593 | 20.27824 | 36126 ft | 437 kts | 335° |
| 2026-04-14 13:49 | 45.91212 | 20.24485 | 36127 ft | 437 kts | 335° |
| 2026-04-14 13:49 | 45.96830 | 20.21139 | 36126 ft | 437 kts | 335° |
| 2026-04-14 13:50 | 46.02450 | 20.17777 | 36135 ft | 437 kts | 335° |
| 2026-04-14 13:50 | 46.08060 | 20.14412 | 36137 ft | 437 kts | 335° |
| 2026-04-14 13:51 | 46.13668 | 20.11038 | 36139 ft | 437 kts | 335° |
| 2026-04-14 13:51 | 46.19311 | 20.07778 | 36137 ft | 437 kts | 338° |
| 2026-04-14 13:52 | 46.25086 | 20.04977 | 36137 ft | 438 kts | 340° |
| 2026-04-14 13:52 | 46.30894 | 20.02296 | 36134 ft | 438 kts | 340° |
| 2026-04-14 13:53 | 46.36679 | 19.99519 | 36133 ft | 438 kts | 339° |
| 2026-04-14 13:53 | 46.42446 | 19.96665 | 36136 ft | 438 kts | 339° |
| 2026-04-14 13:54 | 46.48212 | 19.93795 | 36137 ft | 438 kts | 339° |
| 2026-04-14 13:54 | 46.53983 | 19.90933 | 36138 ft | 438 kts | 339° |
| 2026-04-14 13:55 | 46.59754 | 19.88074 | 36138 ft | 438 kts | 339° |
| 2026-04-14 13:55 | 46.65524 | 19.85215 | 36140 ft | 438 kts | 339° |
| 2026-04-14 13:56 | 46.71297 | 19.82349 | 36146 ft | 438 kts | 339° |
| 2026-04-14 13:56 | 46.77061 | 19.79474 | 36148 ft | 438 kts | 339° |
| 2026-04-14 13:57 | 46.82827 | 19.76585 | 36147 ft | 438 kts | 339° |
| 2026-04-14 13:57 | 46.88592 | 19.73694 | 36147 ft | 438 kts | 339° |
| 2026-04-14 13:58 | 46.94351 | 19.70805 | 36149 ft | 438 kts | 339° |
| 2026-04-14 13:58 | 47.00115 | 19.67904 | 36139 ft | 438 kts | 339° |
| 2026-04-14 13:59 | 47.05879 | 19.64994 | 36143 ft | 438 kts | 339° |
| 2026-04-14 13:59 | 47.11609 | 19.62100 | 36142 ft | 438 kts | 339° |
| 2026-04-14 14:00 | 47.17413 | 19.59163 | 36143 ft | 438 kts | 339° |
| 2026-04-14 14:00 | 47.23181 | 19.56233 | 36141 ft | 438 kts | 339° |
| 2026-04-14 14:01 | 47.28901 | 19.53322 | 36144 ft | 438 kts | 339° |
| 2026-04-14 14:01 | 47.34666 | 19.50375 | 36146 ft | 438 kts | 339° |
| 2026-04-14 14:02 | 47.40422 | 19.47429 | 36150 ft | 438 kts | 339° |
| 2026-04-14 14:02 | 47.46185 | 19.44478 | 36146 ft | 438 kts | 339° |
| 2026-04-14 14:03 | 47.51950 | 19.41523 | 36141 ft | 438 kts | 339° |
| 2026-04-14 14:03 | 47.57716 | 19.38554 | 36139 ft | 439 kts | 339° |
| 2026-04-14 14:04 | 47.63473 | 19.35571 | 36137 ft | 439 kts | 339° |
| 2026-04-14 14:04 | 47.69232 | 19.32583 | 36150 ft | 439 kts | 339° |
| 2026-04-14 14:05 | 47.74999 | 19.29593 | 36141 ft | 439 kts | 339° |
| 2026-04-14 14:05 | 47.80759 | 19.26601 | 36145 ft | 439 kts | 339° |
| 2026-04-14 14:06 | 47.86522 | 19.23607 | 36144 ft | 439 kts | 339° |
| 2026-04-14 14:06 | 47.92286 | 19.20602 | 36145 ft | 439 kts | 338° |
| 2026-04-14 14:07 | 47.98048 | 19.17583 | 36143 ft | 439 kts | 339° |
| 2026-04-14 14:07 | 48.03807 | 19.14553 | 36148 ft | 439 kts | 338° |
| 2026-04-14 14:08 | 48.09574 | 19.11534 | 36146 ft | 439 kts | 339° |
| 2026-04-14 14:08 | 48.15368 | 19.08620 | 36155 ft | 439 kts | 340° |
| 2026-04-14 14:09 | 48.21177 | 19.05734 | 36141 ft | 440 kts | 340° |
| 2026-04-14 14:09 | 48.26983 | 19.02824 | 36142 ft | 440 kts | 339° |
| 2026-04-14 14:10 | 48.32791 | 18.99888 | 36152 ft | 440 kts | 339° |
| 2026-04-14 14:10 | 48.38597 | 18.96940 | 36147 ft | 440 kts | 339° |
| 2026-04-14 14:11 | 48.44364 | 18.94006 | 36140 ft | 441 kts | 339° |
| 2026-04-14 14:11 | 48.50174 | 18.91055 | 36152 ft | 441 kts | 339° |
| 2026-04-14 14:12 | 48.55989 | 18.88090 | 36149 ft | 441 kts | 339° |
| 2026-04-14 14:12 | 48.61764 | 18.84955 | 36150 ft | 441 kts | 336° |
| 2026-04-14 14:13 | 48.67471 | 18.81546 | 36150 ft | 441 kts | 336° |
| 2026-04-14 14:13 | 48.73175 | 18.78100 | 36150 ft | 441 kts | 336° |
| 2026-04-14 14:14 | 48.78891 | 18.74709 | 36153 ft | 441 kts | 336° |
| 2026-04-14 14:14 | 48.84618 | 18.71336 | 36146 ft | 442 kts | 337° |
| 2026-04-14 14:15 | 48.89383 | 18.68535 | 36161 ft | 442 kts | 336° |
| 2026-04-14 14:15 | 48.95117 | 18.65154 | 36156 ft | 442 kts | 336° |
| 2026-04-14 14:16 | 49.00842 | 18.61748 | 36150 ft | 442 kts | 336° |
| 2026-04-14 14:16 | 49.06568 | 18.58325 | 36152 ft | 442 kts | 336° |
| 2026-04-14 14:17 | 49.15162 | 18.53188 | 36157 ft | 442 kts | 336° |
| 2026-04-14 14:17 | 49.20892 | 18.49750 | 36153 ft | 442 kts | 336° |
| 2026-04-14 14:18 | 49.26622 | 18.46311 | 36153 ft | 443 kts | 336° |
| 2026-04-14 14:18 | 49.32360 | 18.42865 | 36149 ft | 443 kts | 336° |
| 2026-04-14 14:19 | 49.38093 | 18.39399 | 36147 ft | 443 kts | 336° |
| 2026-04-14 14:19 | 49.43830 | 18.35921 | 36148 ft | 443 kts | 336° |
| 2026-04-14 14:20 | 49.49564 | 18.32436 | 36146 ft | 443 kts | 336° |
| 2026-04-14 14:20 | 49.55299 | 18.28940 | 36147 ft | 443 kts | 336° |
| 2026-04-14 14:21 | 49.61033 | 18.25433 | 36155 ft | 443 kts | 336° |
| 2026-04-14 14:21 | 49.66725 | 18.21952 | 36153 ft | 443 kts | 336° |
| 2026-04-14 14:22 | 49.72465 | 18.18440 | 36150 ft | 444 kts | 336° |
| 2026-04-14 14:22 | 49.78203 | 18.14917 | 36148 ft | 444 kts | 336° |
| 2026-04-14 14:23 | 49.83938 | 18.11382 | 36148 ft | 444 kts | 336° |
| 2026-04-14 14:23 | 49.89678 | 18.07835 | 36147 ft | 444 kts | 336° |
| 2026-04-14 14:24 | 49.95412 | 18.04275 | 36150 ft | 444 kts | 336° |
| 2026-04-14 14:24 | 50.01150 | 18.00716 | 36150 ft | 444 kts | 336° |
| 2026-04-14 14:25 | 50.06908 | 17.97211 | 36151 ft | 445 kts | 337° |
| 2026-04-14 14:25 | 50.12718 | 17.93890 | 36150 ft | 445 kts | 338° |
| 2026-04-14 14:26 | 50.18532 | 17.90595 | 36157 ft | 445 kts | 337° |
| 2026-04-14 14:26 | 50.24342 | 17.87237 | 36155 ft | 445 kts | 337° |
| 2026-04-14 14:27 | 50.30138 | 17.83851 | 36153 ft | 445 kts | 337° |
| 2026-04-14 14:27 | 50.35941 | 17.80457 | 36161 ft | 445 kts | 337° |
| 2026-04-14 14:28 | 50.41745 | 17.77067 | 36152 ft | 445 kts | 337° |
| 2026-04-14 14:28 | 50.47514 | 17.73696 | 36156 ft | 446 kts | 337° |
| 2026-04-14 14:29 | 50.53322 | 17.70292 | 36144 ft | 446 kts | 337° |
| 2026-04-14 14:29 | 50.59133 | 17.66877 | 36146 ft | 446 kts | 337° |
| 2026-04-14 14:30 | 50.64942 | 17.63456 | 36148 ft | 446 kts | 337° |
| 2026-04-14 14:30 | 50.70757 | 17.60017 | 36150 ft | 446 kts | 337° |
| 2026-04-14 14:31 | 50.76564 | 17.56559 | 36156 ft | 446 kts | 337° |
| 2026-04-14 14:31 | 50.82369 | 17.53084 | 36148 ft | 447 kts | 336° |
| 2026-04-14 14:32 | 50.88180 | 17.49595 | 36141 ft | 447 kts | 337° |
| 2026-04-14 14:32 | 50.93996 | 17.46104 | 36139 ft | 447 kts | 337° |
| 2026-04-14 14:33 | 50.99815 | 17.42612 | 36137 ft | 447 kts | 337° |
| 2026-04-14 14:33 | 51.05635 | 17.39132 | 36138 ft | 447 kts | 336° |
| 2026-04-14 14:34 | 51.14362 | 17.33851 | 36145 ft | 447 kts | 336° |
| 2026-04-14 14:35 | 51.20181 | 17.30314 | 36144 ft | 448 kts | 336° |
| 2026-04-14 14:35 | 51.26008 | 17.26787 | 36137 ft | 448 kts | 336° |
| 2026-04-14 14:36 | 51.31835 | 17.23247 | 36130 ft | 448 kts | 336° |
| 2026-04-14 14:36 | 51.37662 | 17.19668 | 36127 ft | 448 kts | 336° |
| 2026-04-14 14:37 | 51.43488 | 17.16094 | 36128 ft | 449 kts | 336° |
| 2026-04-14 14:37 | 51.49315 | 17.12515 | 36126 ft | 449 kts | 336° |
| 2026-04-14 14:38 | 51.55149 | 17.08943 | 36145 ft | 448 kts | 336° |
| 2026-04-14 14:38 | 51.60977 | 17.05348 | 36132 ft | 449 kts | 336° |
| 2026-04-14 14:39 | 51.66809 | 17.01728 | 36121 ft | 449 kts | 336° |
| 2026-04-14 14:39 | 51.72645 | 16.98096 | 36119 ft | 450 kts | 336° |
| 2026-04-14 14:40 | 51.78484 | 16.94452 | 36127 ft | 450 kts | 336° |
| 2026-04-14 14:40 | 51.84281 | 16.90824 | 36125 ft | 450 kts | 336° |
| 2026-04-14 14:41 | 51.90114 | 16.87171 | 36128 ft | 449 kts | 336° |
| 2026-04-14 14:41 | 51.95947 | 16.83518 | 36138 ft | 449 kts | 336° |
| 2026-04-14 14:42 | 52.01778 | 16.79848 | 36131 ft | 450 kts | 336° |
| 2026-04-14 14:42 | 52.07616 | 16.76162 | 36131 ft | 450 kts | 336° |
| 2026-04-14 14:43 | 52.13448 | 16.72459 | 36136 ft | 450 kts | 336° |
| 2026-04-14 14:43 | 52.19294 | 16.68790 | 36141 ft | 450 kts | 336° |
| 2026-04-14 14:44 | 52.25156 | 16.65152 | 36147 ft | 450 kts | 336° |
| 2026-04-14 14:44 | 52.31012 | 16.61508 | 36146 ft | 450 kts | 336° |
| 2026-04-14 14:45 | 52.36861 | 16.57853 | 36162 ft | 450 kts | 336° |
| 2026-04-14 14:45 | 52.42707 | 16.54158 | 36137 ft | 451 kts | 336° |
| 2026-04-14 14:46 | 52.48558 | 16.50454 | 36132 ft | 451 kts | 336° |
| 2026-04-14 14:46 | 52.54420 | 16.46748 | 36132 ft | 452 kts | 336° |
| 2026-04-14 14:47 | 52.60292 | 16.43021 | 36135 ft | 452 kts | 336° |
| 2026-04-14 14:47 | 52.66151 | 16.39279 | 36139 ft | 452 kts | 336° |
| 2026-04-14 14:48 | 52.72012 | 16.35534 | 36144 ft | 452 kts | 336° |
| 2026-04-14 14:48 | 52.77865 | 16.31780 | 36144 ft | 451 kts | 336° |
| 2026-04-14 14:49 | 52.83714 | 16.28034 | 36158 ft | 451 kts | 336° |
| 2026-04-14 14:49 | 52.89556 | 16.24269 | 36168 ft | 450 kts | 336° |
| 2026-04-14 14:50 | 52.95390 | 16.20486 | 36161 ft | 450 kts | 336° |
| 2026-04-14 14:50 | 53.01216 | 16.16707 | 36164 ft | 449 kts | 336° |
| 2026-04-14 14:51 | 53.07034 | 16.12922 | 36172 ft | 449 kts | 335° |
| 2026-04-14 14:51 | 53.12852 | 16.09129 | 36166 ft | 449 kts | 335° |
| 2026-04-14 14:52 | 53.18670 | 16.05330 | 36168 ft | 449 kts | 336° |
| 2026-04-14 14:52 | 53.24480 | 16.01519 | 36178 ft | 448 kts | 335° |
| 2026-04-14 14:53 | 53.30280 | 15.97694 | 36177 ft | 448 kts | 335° |
| 2026-04-14 14:53 | 53.36071 | 15.93872 | 36178 ft | 447 kts | 335° |
| 2026-04-14 14:54 | 53.41855 | 15.90041 | 36175 ft | 447 kts | 335° |
| 2026-04-14 14:54 | 53.47637 | 15.86202 | 36172 ft | 447 kts | 335° |
| 2026-04-14 14:55 | 53.53429 | 15.82366 | 36169 ft | 447 kts | 335° |
| 2026-04-14 14:55 | 53.59213 | 15.78511 | 36165 ft | 447 kts | 335° |
| 2026-04-14 14:56 | 53.67851 | 15.72709 | 36176 ft | 447 kts | 335° |
| 2026-04-14 14:56 | 53.73621 | 15.68836 | 36184 ft | 446 kts | 335° |
| 2026-04-14 14:57 | 53.79381 | 15.64969 | 36179 ft | 445 kts | 335° |
| 2026-04-14 14:57 | 53.85135 | 15.61088 | 36175 ft | 445 kts | 335° |
| 2026-04-14 14:58 | 53.90877 | 15.57192 | 36172 ft | 445 kts | 335° |
| 2026-04-14 14:58 | 53.96617 | 15.53275 | 36170 ft | 444 kts | 335° |
| 2026-04-14 14:59 | 54.02354 | 15.49359 | 36169 ft | 444 kts | 335° |
| 2026-04-14 14:59 | 54.08096 | 15.45435 | 36168 ft | 444 kts | 335° |
| 2026-04-14 15:00 | 54.13828 | 15.41498 | 36167 ft | 444 kts | 335° |
| 2026-04-14 15:00 | 54.19557 | 15.37544 | 36169 ft | 444 kts | 335° |
| 2026-04-14 15:01 | 54.25288 | 15.33577 | 36168 ft | 444 kts | 335° |
| 2026-04-14 15:01 | 54.30049 | 15.30276 | 36180 ft | 444 kts | 335° |
| 2026-04-14 15:02 | 54.35783 | 15.26295 | 36174 ft | 444 kts | 335° |
| 2026-04-14 15:02 | 54.41508 | 15.22316 | 36174 ft | 444 kts | 335° |
| 2026-04-14 15:03 | 54.47266 | 15.18416 | 36173 ft | 444 kts | 336° |
| 2026-04-14 15:03 | 54.53020 | 15.14535 | 36182 ft | 444 kts | 336° |
| 2026-04-14 15:04 | 54.58761 | 15.10624 | 36188 ft | 444 kts | 336° |
| 2026-04-14 15:04 | 54.64503 | 15.06684 | 36180 ft | 444 kts | 336° |
| 2026-04-14 15:05 | 54.70246 | 15.02737 | 36180 ft | 445 kts | 336° |
| 2026-04-14 15:05 | 54.75998 | 14.98778 | 36168 ft | 445 kts | 336° |
| 2026-04-14 15:06 | 54.81751 | 14.94794 | 36180 ft | 445 kts | 336° |
| 2026-04-14 15:06 | 54.87456 | 14.90618 | 36201 ft | 445 kts | 333° |
| 2026-04-14 15:07 | 54.93095 | 14.86194 | 36211 ft | 445 kts | 333° |
| 2026-04-14 15:07 | 54.98738 | 14.81738 | 36203 ft | 446 kts | 333° |
| 2026-04-14 15:08 | 55.04408 | 14.77340 | 36210 ft | 446 kts | 333° |
| 2026-04-14 15:08 | 55.10097 | 14.72970 | 36212 ft | 447 kts | 334° |
| 2026-04-14 15:09 | 55.15787 | 14.68560 | 36212 ft | 447 kts | 333° |
| 2026-04-14 15:09 | 55.21464 | 14.64108 | 36192 ft | 447 kts | 333° |
| 2026-04-14 15:10 | 55.27146 | 14.59643 | 36198 ft | 447 kts | 333° |
| 2026-04-14 15:10 | 55.32827 | 14.55172 | 36182 ft | 447 kts | 333° |
| 2026-04-14 15:11 | 55.38505 | 14.50695 | 36188 ft | 447 kts | 333° |
| 2026-04-14 15:11 | 55.44184 | 14.46220 | 36181 ft | 447 kts | 333° |
| 2026-04-14 15:12 | 55.49848 | 14.41728 | 36181 ft | 447 kts | 333° |
| 2026-04-14 15:12 | 55.55516 | 14.37212 | 36180 ft | 447 kts | 333° |
| 2026-04-14 15:13 | 55.61181 | 14.32682 | 36188 ft | 447 kts | 333° |
| 2026-04-14 15:13 | 55.66854 | 14.28143 | 36197 ft | 447 kts | 333° |
| 2026-04-14 15:14 | 55.72521 | 14.23591 | 36214 ft | 448 kts | 333° |
| 2026-04-14 15:14 | 55.78200 | 14.19033 | 36223 ft | 448 kts | 333° |
| 2026-04-14 15:15 | 55.83870 | 14.14435 | 36240 ft | 448 kts | 332° |
| 2026-04-14 15:15 | 55.89541 | 14.09809 | 36237 ft | 449 kts | 332° |
| 2026-04-14 15:16 | 55.95219 | 14.05176 | 36202 ft | 449 kts | 332° |
| 2026-04-14 15:16 | 56.00897 | 14.00547 | 36201 ft | 449 kts | 332° |
| 2026-04-14 15:17 | 56.06577 | 13.95901 | 35969 ft | 450 kts | 332° |
| 2026-04-14 15:17 | 56.09448 | 13.93537 | 35138 ft | 456 kts | 332° |
| 2026-04-14 15:17 | 56.12319 | 13.91173 | 34722 ft | 453 kts | 332° |
| 2026-04-14 15:18 | 56.15186 | 13.88813 | 34230 ft | 451 kts | 332° |
| 2026-04-14 15:18 | 56.18028 | 13.86469 | 33675 ft | 449 kts | 332° |
| 2026-04-14 15:18 | 56.20856 | 13.84135 | 33195 ft | 446 kts | 332° |
| 2026-04-14 15:18 | 56.23665 | 13.81813 | 32701 ft | 444 kts | 331° |
| 2026-04-14 15:19 | 56.26460 | 13.79497 | 32213 ft | 441 kts | 331° |
| 2026-04-14 15:19 | 56.29238 | 13.77191 | 31741 ft | 439 kts | 331° |
| 2026-04-14 15:19 | 56.32000 | 13.74892 | 31257 ft | 437 kts | 331° |
| 2026-04-14 15:19 | 56.34714 | 13.72474 | 30805 ft | 432 kts | 326° |
| 2026-04-14 15:20 | 56.37306 | 13.69764 | 30361 ft | 430 kts | 326° |
| 2026-04-14 15:20 | 56.39892 | 13.67054 | 29880 ft | 429 kts | 326° |
| 2026-04-14 15:20 | 56.42460 | 13.64366 | 29453 ft | 425 kts | 326° |
| 2026-04-14 15:20 | 56.45013 | 13.61693 | 29034 ft | 422 kts | 326° |
| 2026-04-14 15:21 | 56.47542 | 13.59039 | 28627 ft | 420 kts | 326° |
| 2026-04-14 15:21 | 56.50064 | 13.56389 | 28218 ft | 417 kts | 326° |
| 2026-04-14 15:21 | 56.52564 | 13.53755 | 27813 ft | 415 kts | 326° |
| 2026-04-14 15:21 | 56.55054 | 13.51124 | 27401 ft | 414 kts | 326° |
| 2026-04-14 15:22 | 56.57539 | 13.48493 | 26994 ft | 413 kts | 326° |
| 2026-04-14 15:22 | 56.60015 | 13.45871 | 26581 ft | 412 kts | 326° |
| 2026-04-14 15:22 | 56.62485 | 13.43253 | 26177 ft | 412 kts | 326° |
| 2026-04-14 15:22 | 56.64955 | 13.40625 | 25739 ft | 411 kts | 326° |
| 2026-04-14 15:23 | 56.67424 | 13.37995 | 25308 ft | 410 kts | 326° |
| 2026-04-14 15:23 | 56.69885 | 13.35373 | 24870 ft | 410 kts | 326° |
| 2026-04-14 15:23 | 56.72348 | 13.32750 | 24433 ft | 410 kts | 326° |
| 2026-04-14 15:23 | 56.74810 | 13.30131 | 23976 ft | 410 kts | 327° |
| 2026-04-14 15:24 | 56.77277 | 13.27517 | 23489 ft | 410 kts | 327° |
| 2026-04-14 15:24 | 56.79738 | 13.24908 | 23024 ft | 408 kts | 327° |
| 2026-04-14 15:24 | 56.82186 | 13.22311 | 22570 ft | 406 kts | 327° |
| 2026-04-14 15:24 | 56.84619 | 13.19724 | 22113 ft | 404 kts | 327° |
| 2026-04-14 15:25 | 56.87037 | 13.17149 | 21662 ft | 401 kts | 327° |
| 2026-04-14 15:25 | 56.89439 | 13.14582 | 21211 ft | 399 kts | 327° |
| 2026-04-14 15:25 | 56.91828 | 13.12022 | 20767 ft | 396 kts | 327° |
| 2026-04-14 15:25 | 56.94198 | 13.09476 | 20323 ft | 394 kts | 327° |
| 2026-04-14 15:26 | 56.96553 | 13.06937 | 19869 ft | 392 kts | 327° |
| 2026-04-14 15:26 | 56.98894 | 13.04409 | 19495 ft | 389 kts | 327° |
| 2026-04-14 15:26 | 57.01207 | 13.01915 | 18988 ft | 381 kts | 327° |
| 2026-04-14 15:26 | 57.03451 | 12.99498 | 18563 ft | 368 kts | 327° |
| 2026-04-14 15:27 | 57.05634 | 12.97145 | 18127 ft | 361 kts | 327° |
| 2026-04-14 15:27 | 57.07793 | 12.94805 | 17706 ft | 360 kts | 327° |
| 2026-04-14 15:27 | 57.10037 | 12.92789 | 17302 ft | 360 kts | 339° |
| 2026-04-14 15:27 | 57.12413 | 12.91554 | 16897 ft | 359 kts | 345° |
| 2026-04-14 15:28 | 57.14866 | 12.90447 | 16480 ft | 358 kts | 345° |
| 2026-04-14 15:28 | 57.17242 | 12.89366 | 16079 ft | 356 kts | 345° |
| 2026-04-14 15:28 | 57.19643 | 12.88268 | 15673 ft | 355 kts | 345° |
| 2026-04-14 15:28 | 57.22039 | 12.87169 | 15269 ft | 354 kts | 345° |
| 2026-04-14 15:29 | 57.24427 | 12.86072 | 14876 ft | 353 kts | 345° |
| 2026-04-14 15:29 | 57.26809 | 12.84978 | 14477 ft | 352 kts | 345° |
| 2026-04-14 15:29 | 57.29186 | 12.83885 | 14078 ft | 351 kts | 345° |
| 2026-04-14 15:29 | 57.31549 | 12.82796 | 13648 ft | 349 kts | 345° |
| 2026-04-14 15:30 | 57.33893 | 12.81714 | 13238 ft | 342 kts | 345° |
| 2026-04-14 15:30 | 57.36155 | 12.80674 | 12866 ft | 331 kts | 345° |
| 2026-04-14 15:30 | 57.38386 | 12.79650 | 12496 ft | 330 kts | 345° |
| 2026-04-14 15:30 | 57.40608 | 12.78628 | 12118 ft | 329 kts | 345° |
| 2026-04-14 15:31 | 57.42822 | 12.77603 | 11738 ft | 328 kts | 345° |
| 2026-04-14 15:31 | 57.45037 | 12.76574 | 11360 ft | 327 kts | 345° |
| 2026-04-14 15:31 | 57.47244 | 12.75544 | 10990 ft | 327 kts | 345° |
| 2026-04-14 15:31 | 57.49446 | 12.74522 | 10607 ft | 326 kts | 345° |
| 2026-04-14 15:32 | 57.51634 | 12.73512 | 10368 ft | 317 kts | 346° |
| 2026-04-14 15:32 | 57.53738 | 12.72535 | 9921 ft | 308 kts | 345° |
| 2026-04-14 15:32 | 57.55798 | 12.71578 | 9528 ft | 304 kts | 345° |
| 2026-04-14 15:32 | 57.57852 | 12.70621 | 9144 ft | 304 kts | 346° |
| 2026-04-14 15:33 | 57.59904 | 12.69662 | 8676 ft | 304 kts | 346° |
| 2026-04-14 15:33 | 57.61939 | 12.68705 | 8281 ft | 300 kts | 346° |
| 2026-04-14 15:33 | 57.63971 | 12.67746 | 7905 ft | 302 kts | 346° |
| 2026-04-14 15:33 | 57.65965 | 12.66506 | 7556 ft | 304 kts | 340° |
| 2026-04-14 15:34 | 57.67931 | 12.65154 | 7334 ft | 293 kts | 341° |
| 2026-04-14 15:34 | 57.69790 | 12.63885 | 7213 ft | 276 kts | 340° |
| 2026-04-14 15:34 | 57.71570 | 12.62676 | 6890 ft | 270 kts | 341° |
| 2026-04-14 15:34 | 57.73310 | 12.61491 | 6712 ft | 259 kts | 341° |
| 2026-04-14 15:35 | 57.74940 | 12.60373 | 6618 ft | 240 kts | 341° |
| 2026-04-14 15:35 | 57.76447 | 12.59334 | 6488 ft | 223 kts | 342° |
| 2026-04-14 15:35 | 57.77861 | 12.58364 | 6332 ft | 210 kts | 342° |
| 2026-04-14 15:35 | 57.79214 | 12.57470 | 6070 ft | 204 kts | 347° |
| 2026-04-14 15:36 | 57.80574 | 12.56787 | 5728 ft | 201 kts | 357° |
| 2026-04-14 15:36 | 57.81914 | 12.56986 | 5516 ft | 188 kts | 24° |
| 2026-04-14 15:36 | 57.83149 | 12.57722 | 5302 ft | 185 kts | 29° |
| 2026-04-14 15:36 | 57.84353 | 12.58509 | 5087 ft | 183 kts | 30° |
| 2026-04-14 15:37 | 57.85552 | 12.59294 | 4802 ft | 181 kts | 28° |
| 2026-04-14 15:37 | 57.86783 | 12.59798 | 4573 ft | 184 kts | 4° |
| 2026-04-14 15:37 | 57.88015 | 12.59087 | 4516 ft | 199 kts | 326° |
| 2026-04-14 15:37 | 57.88970 | 12.57025 | 4423 ft | 214 kts | 296° |
| 2026-04-14 15:38 | 57.89422 | 12.54402 | 4304 ft | 210 kts | 271° |
| 2026-04-14 15:38 | 57.89303 | 12.51669 | 4184 ft | 210 kts | 247° |
| 2026-04-14 15:38 | 57.88666 | 12.49306 | 4087 ft | 202 kts | 224° |
| 2026-04-14 15:38 | 57.87650 | 12.47601 | 4007 ft | 191 kts | 203° |
| 2026-04-14 15:39 | 57.86466 | 12.46489 | 4012 ft | 196 kts | 199° |
| 2026-04-14 15:39 | 57.85233 | 12.45348 | 4015 ft | 198 kts | 198° |
| 2026-04-14 15:39 | 57.84002 | 12.44211 | 4005 ft | 197 kts | 198° |
| 2026-04-14 15:39 | 57.82788 | 12.43089 | 3900 ft | 189 kts | 197° |
| 2026-04-14 15:40 | 57.81620 | 12.42014 | 3694 ft | 187 kts | 197° |
| 2026-04-14 15:40 | 57.80457 | 12.40946 | 3440 ft | 185 kts | 197° |
| 2026-04-14 15:40 | 57.79310 | 12.39893 | 3183 ft | 182 kts | 197° |
| 2026-04-14 15:40 | 57.78179 | 12.38855 | 2938 ft | 180 kts | 198° |
| 2026-04-14 15:41 | 57.77061 | 12.37830 | 2689 ft | 178 kts | 198° |
| 2026-04-14 15:41 | 57.75985 | 12.36839 | 2444 ft | 165 kts | 197° |
| 2026-04-14 15:41 | 57.75033 | 12.35960 | 2234 ft | 143 kts | 197° |
| 2026-04-14 15:41 | 57.74166 | 12.35170 | 2041 ft | 136 kts | 197° |
| 2026-04-14 15:42 | 57.73327 | 12.34407 | 1863 ft | 134 kts | 197° |
| 2026-04-14 15:42 | 57.72491 | 12.33645 | 1676 ft | 134 kts | 196° |
| 2026-04-14 15:42 | 57.71649 | 12.32877 | 1477 ft | 135 kts | 197° |
| 2026-04-14 15:42 | 57.70798 | 12.32101 | 1289 ft | 136 kts | 200° |
| 2026-04-14 15:43 | 57.69936 | 12.31314 | 1090 ft | 137 kts | 201° |
| 2026-04-14 15:43 | 57.69078 | 12.30532 | 884 ft | 139 kts | 200° |
| 2026-04-14 15:43 | 57.68204 | 12.29734 | 664 ft | 142 kts | 201° |
| 2026-04-14 15:43 | 57.67326 | 12.28929 | 568 ft | 140 kts | 203° |
| 2026-04-14 15:44 | 57.66425 | 12.28079 | 970 ft | 149 kts | 201° |
| 2026-04-14 15:44 | 57.65498 | 12.27087 | 1604 ft | 157 kts | 204° |
| 2026-04-14 15:44 | 57.64529 | 12.26064 | 1955 ft | 164 kts | 200° |
| 2026-04-14 15:44 | 57.63456 | 12.25060 | 2083 ft | 184 kts | 199° |
| 2026-04-14 15:45 | 57.62661 | 12.24331 | 2251 ft | 198 kts | 199° |
| 2026-04-14 15:45 | 57.61439 | 12.23017 | 2789 ft | 212 kts | 215° |
| 2026-04-14 15:45 | 57.60597 | 12.20618 | 2990 ft | 233 kts | 247° |
| 2026-04-14 15:45 | 57.60544 | 12.17536 | 3001 ft | 247 kts | 281° |
| 2026-04-14 15:46 | 57.61205 | 12.14552 | 2996 ft | 251 kts | 299° |
| 2026-04-14 15:46 | 57.62175 | 12.11850 | 2996 ft | 250 kts | 304° |
| 2026-04-14 15:46 | 57.63338 | 12.09433 | 2982 ft | 252 kts | 327° |
| 2026-04-14 15:46 | 57.64941 | 12.08318 | 2993 ft | 244 kts | 2° |
| 2026-04-14 15:47 | 57.66618 | 12.08436 | 3034 ft | 242 kts | 9° |
| 2026-04-14 15:47 | 57.68302 | 12.08576 | 3029 ft | 242 kts | 8° |
| 2026-04-14 15:47 | 57.69974 | 12.08728 | 3026 ft | 239 kts | 14° |
| 2026-04-14 15:47 | 57.71551 | 12.09535 | 3033 ft | 233 kts | 28° |
| 2026-04-14 15:48 | 57.73066 | 12.10580 | 3034 ft | 232 kts | 29° |
| 2026-04-14 15:48 | 57.74538 | 12.11769 | 3031 ft | 229 kts | 34° |
| 2026-04-14 15:48 | 57.75957 | 12.13101 | 3031 ft | 228 kts | 35° |
| 2026-04-14 15:48 | 57.77362 | 12.14480 | 3027 ft | 226 kts | 35° |
| 2026-04-14 15:49 | 57.78719 | 12.15896 | 3025 ft | 221 kts | 42° |
| 2026-04-14 15:49 | 57.79875 | 12.17719 | 3027 ft | 214 kts | 54° |
| 2026-04-14 15:49 | 57.80874 | 12.19748 | 3008 ft | 211 kts | 57° |
| 2026-04-14 15:49 | 57.81837 | 12.21822 | 2998 ft | 209 kts | 61° |
| 2026-04-14 15:50 | 57.82446 | 12.24203 | 2996 ft | 200 kts | 85° |
| 2026-04-14 15:50 | 57.82437 | 12.26699 | 3006 ft | 182 kts | 103° |
| 2026-04-14 15:50 | 57.82268 | 12.28961 | 3039 ft | 173 kts | 103° |
| 2026-04-14 15:50 | 57.82102 | 12.31187 | 3009 ft | 172 kts | 103° |
| 2026-04-14 15:51 | 57.81935 | 12.33406 | 3003 ft | 172 kts | 103° |
| 2026-04-14 15:51 | 57.81588 | 12.35507 | 3007 ft | 168 kts | 120° |
| 2026-04-14 15:51 | 57.80875 | 12.37217 | 3005 ft | 167 kts | 138° |
| 2026-04-14 15:51 | 57.79885 | 12.38342 | 3005 ft | 165 kts | 156° |
| 2026-04-14 15:52 | 57.78772 | 12.38739 | 2925 ft | 167 kts | 173° |
| 2026-04-14 15:52 | 57.77618 | 12.38334 | 2779 ft | 174 kts | 195° |
| 2026-04-14 15:52 | 57.76519 | 12.37345 | 2571 ft | 175 kts | 198° |
| 2026-04-14 15:52 | 57.75438 | 12.36345 | 2322 ft | 169 kts | 198° |
| 2026-04-14 15:53 | 57.74416 | 12.35403 | 2095 ft | 158 kts | 198° |
| 2026-04-14 15:53 | 57.73460 | 12.34527 | 1880 ft | 148 kts | 198° |
| 2026-04-14 15:53 | 57.72578 | 12.33720 | 1697 ft | 137 kts | 198° |
| 2026-04-14 15:53 | 57.71727 | 12.32945 | 1499 ft | 136 kts | 197° |
| 2026-04-14 15:54 | 57.70024 | 12.31394 | 1103 ft | 137 kts | 200° |
| 2026-04-14 15:54 | 57.69171 | 12.30615 | 904 ft | 137 kts | 201° |
| 2026-04-14 15:54 | 57.68312 | 12.29827 | 687 ft | 138 kts | 201° |
| 2026-04-14 15:55 | 57.67449 | 12.29037 | 542 ft | 138 kts | 201° |
| 2026-04-14 15:55 | 57.66674 | 12.28342 | 512 ft | 102 kts | 205° |
| 2026-04-14 15:55 | 57.66192 | 12.27899 | 509 ft | 52 kts | 206° |
| 2026-04-14 15:55 | 57.65931 | 12.27685 | 506 ft | 36 kts | 192° |
| 2026-04-14 15:56 | 57.65742 | 12.27683 | 505 ft | 19 kts | 161° |
| 2026-04-14 15:56 | 57.65736 | 12.27823 | 505 ft | 13 kts | 37° |
| 2026-04-14 15:56 | 57.65784 | 12.27870 | 507 ft | 7 kts | 27° |
| 2026-04-14 15:56 | 57.65829 | 12.27914 | 506 ft | 8 kts | 27° |
| 2026-04-14 15:57 | 57.65883 | 12.27965 | 507 ft | 10 kts | 26° |
| 2026-04-14 15:57 | 57.65952 | 12.28026 | 508 ft | 12 kts | 25° |
| 2026-04-14 15:57 | 57.66040 | 12.28104 | 508 ft | 15 kts | 26° |
| 2026-04-14 15:57 | 57.66152 | 12.28206 | 510 ft | 20 kts | 26° |
| 2026-04-14 15:58 | 57.66284 | 12.28326 | 511 ft | 22 kts | 25° |
| 2026-04-14 15:58 | 57.66429 | 12.28461 | 511 ft | 25 kts | 26° |
| 2026-04-14 15:58 | 57.66586 | 12.28602 | 512 ft | 26 kts | 26° |
| 2026-04-14 15:58 | 57.66727 | 12.28731 | 512 ft | 23 kts | 26° |
| 2026-04-14 15:59 | 57.66850 | 12.28840 | 513 ft | 19 kts | 25° |
| 2026-04-14 15:59 | 57.66971 | 12.28952 | 514 ft | 16 kts | 26° |
| 2026-04-14 15:59 | 57.67040 | 12.29064 | 514 ft | 13 kts | 85° |
| 2026-04-14 15:59 | 57.67005 | 12.29220 | 516 ft | 13 kts | 116° |
| 2026-04-14 16:00 | 57.66968 | 12.29340 | 516 ft | 10 kts | 129° |
| 2026-04-14 16:00 | 57.66938 | 12.29442 | 516 ft | 5 kts | 116° |
| 2026-04-14 16:00 | 57.66932 | 12.29467 | 516 ft | 0 kts | 116° |